sensor_id;sensor_type;location;lat;lon;timestamp;P1;durP1;ratioP1;P2;durP2;ratioP2
35689;SDS011;26977;44.830;-0.674;2022-09-03T00:00:15;11.20;;;4.65;;
35689;SDS011;26977;44.830;-0.674;2022-09-03T00:07:46;9.80;;;5.05;;
35689;SDS011;26977;44.830;-0.674;2022-09-03T00:10:35;15.68;;;4.90;;
35689;SDS011;26977;44.830;-0.674;2022-09-03T00:14:22;11.40;;;5.35;;
35689;SDS011;26977;44.830;-0.674;2022-09-03T00:16:23;12.07;;;5.00;;
35689;SDS011;26977;44.830;-0.674;2022-09-03T00:18:56;10.60;;;4.60;;
35689;SDS011;26977;44.830;-0.674;2022-09-03T00:24:12;10.35;;;5.35;;
35689;SDS011;26977;44.830;-0.674;2022-09-03T00:26:42;15.65;;;5.20;;
35689;SDS011;26977;44.830;-0.674;2022-09-03T00:29:12;11.25;;;4.57;;
35689;SDS011;26977;44.830;-0.674;2022-09-03T00:31:42;11.43;;;4.60;;
35689;SDS011;26977;44.830;-0.674;2022-09-03T00:34:22;9.25;;;4.20;;
35689;SDS011;26977;44.830;-0.674;2022-09-03T00:36:58;10.43;;;3.60;;
35689;SDS011;26977;44.830;-0.674;2022-09-03T00:39:24;9.40;;;3.90;;
35689;SDS011;26977;44.830;-0.674;2022-09-03T00:41:54;9.43;;;4.10;;
35689;SDS011;26977;44.830;-0.674;2022-09-03T00:51:17;8.68;;;4.45;;
35689;SDS011;26977;44.830;-0.674;2022-09-03T00:53:21;10.98;;;3.53;;
35689;SDS011;26977;44.830;-0.674;2022-09-03T01:04:26;10.35;;;3.58;;
35689;SDS011;26977;44.830;-0.674;2022-09-03T01:12:34;12.88;;;3.72;;
35689;SDS011;26977;44.830;-0.674;2022-09-03T01:18:10;15.93;;;4.05;;
35689;SDS011;26977;44.830;-0.674;2022-09-03T01:20:50;11.20;;;4.32;;
35689;SDS011;26977;44.830;-0.674;2022-09-03T01:29:38;11.52;;;4.75;;
35689;SDS011;26977;44.830;-0.674;2022-09-03T01:34:47;8.43;;;4.60;;
35689;SDS011;26977;44.830;-0.674;2022-09-03T01:46:39;10.80;;;5.10;;
35689;SDS011;26977;44.830;-0.674;2022-09-03T01:48:54;14.88;;;5.47;;
35689;SDS011;26977;44.830;-0.674;2022-09-03T01:51:30;8.75;;;4.70;;
35689;SDS011;26977;44.830;-0.674;2022-09-03T01:57:21;8.90;;;5.70;;
35689;SDS011;26977;44.830;-0.674;2022-09-03T02:00:10;13.45;;;5.28;;
35689;SDS011;26977;44.830;-0.674;2022-09-03T02:02:42;13.88;;;6.18;;
35689;SDS011;26977;44.830;-0.674;2022-09-03T02:05:16;9.35;;;5.88;;
35689;SDS011;26977;44.830;-0.674;2022-09-03T02:07:46;15.40;;;7.25;;
35689;SDS011;26977;44.830;-0.674;2022-09-03T02:10:14;9.88;;;6.35;;
35689;SDS011;26977;44.830;-0.674;2022-09-03T02:12:53;16.17;;;6.82;;
35689;SDS011;26977;44.830;-0.674;2022-09-03T02:15:22;12.60;;;6.90;;
35689;SDS011;26977;44.830;-0.674;2022-09-03T02:17:51;17.90;;;6.75;;
35689;SDS011;26977;44.830;-0.674;2022-09-03T02:20:21;9.02;;;6.18;;
35689;SDS011;26977;44.830;-0.674;2022-09-03T02:22:51;12.15;;;6.35;;
35689;SDS011;26977;44.830;-0.674;2022-09-03T02:25:18;13.48;;;6.72;;
35689;SDS011;26977;44.830;-0.674;2022-09-03T02:27:47;14.35;;;6.95;;
35689;SDS011;26977;44.830;-0.674;2022-09-03T02:30:13;19.52;;;7.57;;
35689;SDS011;26977;44.830;-0.674;2022-09-03T02:32:39;11.23;;;6.70;;
35689;SDS011;26977;44.830;-0.674;2022-09-03T02:35:05;13.85;;;7.30;;
35689;SDS011;26977;44.830;-0.674;2022-09-03T02:37:31;14.82;;;7.13;;
35689;SDS011;26977;44.830;-0.674;2022-09-03T02:39:57;14.50;;;7.05;;
35689;SDS011;26977;44.830;-0.674;2022-09-03T02:42:23;15.02;;;7.18;;
35689;SDS011;26977;44.830;-0.674;2022-09-03T02:45:23;14.88;;;6.97;;
35689;SDS011;26977;44.830;-0.674;2022-09-03T02:47:45;11.07;;;6.65;;
35689;SDS011;26977;44.830;-0.674;2022-09-03T02:50:14;10.68;;;7.47;;
35689;SDS011;26977;44.830;-0.674;2022-09-03T02:52:40;13.90;;;6.95;;
35689;SDS011;26977;44.830;-0.674;2022-09-03T02:55:06;13.20;;;7.55;;
35689;SDS011;26977;44.830;-0.674;2022-09-03T02:57:32;12.43;;;6.63;;
35689;SDS011;26977;44.830;-0.674;2022-09-03T02:59:57;15.23;;;6.60;;
35689;SDS011;26977;44.830;-0.674;2022-09-03T03:02:23;11.13;;;6.55;;
35689;SDS011;26977;44.830;-0.674;2022-09-03T03:04:48;13.43;;;6.57;;
35689;SDS011;26977;44.830;-0.674;2022-09-03T03:07:14;14.98;;;6.10;;
35689;SDS011;26977;44.830;-0.674;2022-09-03T03:09:40;12.57;;;6.22;;
35689;SDS011;26977;44.830;-0.674;2022-09-03T03:12:05;9.05;;;6.10;;
35689;SDS011;26977;44.830;-0.674;2022-09-03T03:14:33;16.80;;;6.50;;
35689;SDS011;26977;44.830;-0.674;2022-09-03T03:16:59;12.02;;;5.75;;
35689;SDS011;26977;44.830;-0.674;2022-09-03T03:19:25;14.20;;;6.38;;
35689;SDS011;26977;44.830;-0.674;2022-09-03T03:21:50;12.57;;;5.88;;
35689;SDS011;26977;44.830;-0.674;2022-09-03T03:24:16;13.10;;;6.55;;
35689;SDS011;26977;44.830;-0.674;2022-09-03T03:26:42;10.65;;;5.82;;
35689;SDS011;26977;44.830;-0.674;2022-09-03T03:29:07;11.93;;;6.45;;
35689;SDS011;26977;44.830;-0.674;2022-09-03T03:31:41;12.13;;;6.13;;
35689;SDS011;26977;44.830;-0.674;2022-09-03T03:34:06;13.43;;;5.90;;
35689;SDS011;26977;44.830;-0.674;2022-09-03T03:36:32;13.82;;;6.28;;
35689;SDS011;26977;44.830;-0.674;2022-09-03T03:38:58;11.68;;;6.03;;
35689;SDS011;26977;44.830;-0.674;2022-09-03T03:41:32;8.63;;;5.82;;
35689;SDS011;26977;44.830;-0.674;2022-09-03T03:44:00;11.55;;;5.47;;
35689;SDS011;26977;44.830;-0.674;2022-09-03T03:46:28;9.15;;;5.50;;
35689;SDS011;26977;44.830;-0.674;2022-09-03T03:48:58;10.93;;;5.72;;
35689;SDS011;26977;44.830;-0.674;2022-09-03T03:51:24;11.27;;;6.40;;
35689;SDS011;26977;44.830;-0.674;2022-09-03T03:53:52;10.05;;;6.03;;
35689;SDS011;26977;44.830;-0.674;2022-09-03T03:56:22;12.10;;;6.05;;
35689;SDS011;26977;44.830;-0.674;2022-09-03T03:58:50;11.63;;;6.75;;
35689;SDS011;26977;44.830;-0.674;2022-09-03T04:01:20;9.90;;;6.13;;
35689;SDS011;26977;44.830;-0.674;2022-09-03T04:03:47;13.18;;;6.43;;
35689;SDS011;26977;44.830;-0.674;2022-09-03T04:06:15;10.48;;;6.80;;
35689;SDS011;26977;44.830;-0.674;2022-09-03T04:08:44;14.57;;;6.88;;
35689;SDS011;26977;44.830;-0.674;2022-09-03T04:11:11;13.20;;;7.07;;
35689;SDS011;26977;44.830;-0.674;2022-09-03T04:13:39;10.57;;;6.93;;
35689;SDS011;26977;44.830;-0.674;2022-09-03T04:16:16;10.98;;;6.57;;
35689;SDS011;26977;44.830;-0.674;2022-09-03T04:18:44;11.32;;;6.40;;
35689;SDS011;26977;44.830;-0.674;2022-09-03T04:21:14;9.00;;;6.22;;
35689;SDS011;26977;44.830;-0.674;2022-09-03T04:23:45;10.98;;;6.25;;
35689;SDS011;26977;44.830;-0.674;2022-09-03T04:26:12;17.00;;;7.57;;
35689;SDS011;26977;44.830;-0.674;2022-09-03T04:28:40;12.70;;;7.10;;
35689;SDS011;26977;44.830;-0.674;2022-09-03T04:31:09;8.82;;;6.75;;
35689;SDS011;26977;44.830;-0.674;2022-09-03T04:33:36;18.38;;;8.35;;
35689;SDS011;26977;44.830;-0.674;2022-09-03T04:36:03;15.48;;;8.57;;
35689;SDS011;26977;44.830;-0.674;2022-09-03T04:38:31;9.52;;;7.47;;
35689;SDS011;26977;44.830;-0.674;2022-09-03T04:40:58;14.48;;;7.80;;
35689;SDS011;26977;44.830;-0.674;2022-09-03T04:43:24;13.93;;;7.97;;
35689;SDS011;26977;44.830;-0.674;2022-09-03T04:45:54;19.88;;;8.90;;
35689;SDS011;26977;44.830;-0.674;2022-09-03T04:48:21;14.23;;;8.50;;
35689;SDS011;26977;44.830;-0.674;2022-09-03T04:50:47;17.90;;;8.35;;
35689;SDS011;26977;44.830;-0.674;2022-09-03T04:53:13;15.27;;;8.32;;
35689;SDS011;26977;44.830;-0.674;2022-09-03T04:55:38;11.77;;;8.38;;
35689;SDS011;26977;44.830;-0.674;2022-09-03T04:58:04;15.45;;;9.07;;
35689;SDS011;26977;44.830;-0.674;2022-09-03T05:00:32;14.75;;;8.68;;
35689;SDS011;26977;44.830;-0.674;2022-09-03T05:03:00;16.95;;;8.98;;
35689;SDS011;26977;44.830;-0.674;2022-09-03T05:05:28;15.00;;;8.70;;
35689;SDS011;26977;44.830;-0.674;2022-09-03T05:07:59;13.90;;;7.93;;
35689;SDS011;26977;44.830;-0.674;2022-09-03T05:10:25;16.10;;;8.63;;
35689;SDS011;26977;44.830;-0.674;2022-09-03T05:13:01;16.58;;;8.07;;
35689;SDS011;26977;44.830;-0.674;2022-09-03T05:15:29;16.52;;;9.75;;
35689;SDS011;26977;44.830;-0.674;2022-09-03T05:17:57;15.68;;;10.05;;
35689;SDS011;26977;44.830;-0.674;2022-09-03T05:20:24;20.08;;;12.02;;
35689;SDS011;26977;44.830;-0.674;2022-09-03T05:22:50;15.45;;;10.02;;
35689;SDS011;26977;44.830;-0.674;2022-09-03T05:25:16;18.48;;;11.30;;
35689;SDS011;26977;44.830;-0.674;2022-09-03T05:27:42;22.17;;;10.80;;
35689;SDS011;26977;44.830;-0.674;2022-09-03T05:30:08;20.55;;;11.65;;
35689;SDS011;26977;44.830;-0.674;2022-09-03T05:32:34;13.55;;;10.43;;
35689;SDS011;26977;44.830;-0.674;2022-09-03T05:34:59;19.38;;;11.15;;
35689;SDS011;26977;44.830;-0.674;2022-09-03T05:37:25;15.70;;;10.95;;
35689;SDS011;26977;44.830;-0.674;2022-09-03T05:39:51;15.95;;;10.52;;
35689;SDS011;26977;44.830;-0.674;2022-09-03T05:42:17;25.27;;;11.27;;
35689;SDS011;26977;44.830;-0.674;2022-09-03T05:44:44;22.90;;;11.95;;
35689;SDS011;26977;44.830;-0.674;2022-09-03T05:47:09;16.58;;;11.50;;
35689;SDS011;26977;44.830;-0.674;2022-09-03T05:49:35;17.25;;;10.68;;
35689;SDS011;26977;44.830;-0.674;2022-09-03T05:52:01;19.23;;;9.98;;
35689;SDS011;26977;44.830;-0.674;2022-09-03T05:54:27;14.52;;;10.20;;
35689;SDS011;26977;44.830;-0.674;2022-09-03T05:56:52;22.33;;;11.88;;
35689;SDS011;26977;44.830;-0.674;2022-09-03T05:59:18;18.58;;;10.95;;
35689;SDS011;26977;44.830;-0.674;2022-09-03T06:01:44;20.38;;;11.90;;
35689;SDS011;26977;44.830;-0.674;2022-09-03T06:04:14;17.20;;;11.65;;
35689;SDS011;26977;44.830;-0.674;2022-09-03T06:06:42;18.08;;;11.13;;
35689;SDS011;26977;44.830;-0.674;2022-09-03T06:09:09;21.92;;;12.15;;
35689;SDS011;26977;44.830;-0.674;2022-09-03T06:11:43;16.38;;;12.13;;
35689;SDS011;26977;44.830;-0.674;2022-09-03T06:14:10;18.80;;;12.13;;
35689;SDS011;26977;44.830;-0.674;2022-09-03T06:16:39;20.67;;;12.32;;
35689;SDS011;26977;44.830;-0.674;2022-09-03T06:19:07;19.50;;;10.60;;
35689;SDS011;26977;44.830;-0.674;2022-09-03T06:21:35;17.55;;;12.23;;
35689;SDS011;26977;44.830;-0.674;2022-09-03T06:24:04;17.58;;;10.70;;
35689;SDS011;26977;44.830;-0.674;2022-09-03T06:26:29;16.42;;;10.80;;
35689;SDS011;26977;44.830;-0.674;2022-09-03T06:28:55;18.30;;;10.80;;
35689;SDS011;26977;44.830;-0.674;2022-09-03T06:31:21;14.48;;;10.63;;
35689;SDS011;26977;44.830;-0.674;2022-09-03T06:33:47;13.00;;;9.90;;
35689;SDS011;26977;44.830;-0.674;2022-09-03T06:36:14;16.95;;;11.88;;
35689;SDS011;26977;44.830;-0.674;2022-09-03T06:38:41;15.75;;;11.35;;
35689;SDS011;26977;44.830;-0.674;2022-09-03T06:41:09;20.77;;;10.90;;
35689;SDS011;26977;44.830;-0.674;2022-09-03T06:43:45;15.45;;;9.63;;
35689;SDS011;26977;44.830;-0.674;2022-09-03T06:46:13;24.42;;;10.25;;
35689;SDS011;26977;44.830;-0.674;2022-09-03T06:48:41;17.30;;;9.57;;
35689;SDS011;26977;44.830;-0.674;2022-09-03T06:51:11;19.30;;;9.95;;
35689;SDS011;26977;44.830;-0.674;2022-09-03T06:53:44;15.48;;;10.18;;
35689;SDS011;26977;44.830;-0.674;2022-09-03T06:56:13;17.23;;;10.40;;
35689;SDS011;26977;44.830;-0.674;2022-09-03T06:58:45;17.70;;;9.85;;
35689;SDS011;26977;44.830;-0.674;2022-09-03T07:03:40;15.90;;;9.48;;
35689;SDS011;26977;44.830;-0.674;2022-09-03T07:06:11;19.48;;;8.23;;
35689;SDS011;26977;44.830;-0.674;2022-09-03T07:08:38;12.90;;;7.78;;
35689;SDS011;26977;44.830;-0.674;2022-09-03T07:11:06;11.60;;;7.63;;
35689;SDS011;26977;44.830;-0.674;2022-09-03T07:13:43;13.13;;;8.05;;
35689;SDS011;26977;44.830;-0.674;2022-09-03T07:18:40;10.52;;;6.95;;
35689;SDS011;26977;44.830;-0.674;2022-09-03T07:21:10;12.93;;;7.25;;
35689;SDS011;26977;44.830;-0.674;2022-09-03T07:23:55;11.75;;;7.15;;
35689;SDS011;26977;44.830;-0.674;2022-09-03T07:26:25;12.63;;;7.25;;
35689;SDS011;26977;44.830;-0.674;2022-09-03T07:28:52;14.88;;;6.85;;
35689;SDS011;26977;44.830;-0.674;2022-09-03T07:33:51;9.88;;;6.45;;
35689;SDS011;26977;44.830;-0.674;2022-09-03T07:36:22;14.23;;;6.00;;
35689;SDS011;26977;44.830;-0.674;2022-09-03T07:38:50;10.85;;;6.82;;
35689;SDS011;26977;44.830;-0.674;2022-09-03T07:41:19;10.00;;;6.40;;
35689;SDS011;26977;44.830;-0.674;2022-09-03T07:43:46;12.00;;;6.85;;
35689;SDS011;26977;44.830;-0.674;2022-09-03T07:46:17;12.15;;;6.30;;
35689;SDS011;26977;44.830;-0.674;2022-09-03T07:48:48;9.02;;;5.50;;
35689;SDS011;26977;44.830;-0.674;2022-09-03T07:51:15;11.57;;;5.93;;
35689;SDS011;26977;44.830;-0.674;2022-09-03T07:53:42;9.98;;;5.60;;
35689;SDS011;26977;44.830;-0.674;2022-09-03T07:56:09;12.93;;;5.70;;
35689;SDS011;26977;44.830;-0.674;2022-09-03T07:58:36;9.88;;;5.82;;
35689;SDS011;26977;44.830;-0.674;2022-09-03T08:01:05;10.05;;;5.00;;
35689;SDS011;26977;44.830;-0.674;2022-09-03T08:03:36;8.63;;;4.93;;
35689;SDS011;26977;44.830;-0.674;2022-09-03T08:06:03;13.35;;;5.13;;
35689;SDS011;26977;44.830;-0.674;2022-09-03T08:08:31;7.03;;;5.10;;
35689;SDS011;26977;44.830;-0.674;2022-09-03T08:11:07;6.95;;;4.25;;
35689;SDS011;26977;44.830;-0.674;2022-09-03T08:16:10;8.88;;;5.13;;
35689;SDS011;26977;44.830;-0.674;2022-09-03T08:18:36;10.75;;;4.60;;
35689;SDS011;26977;44.830;-0.674;2022-09-03T08:21:05;10.40;;;4.78;;
35689;SDS011;26977;44.830;-0.674;2022-09-03T08:23:32;11.63;;;5.20;;
35689;SDS011;26977;44.830;-0.674;2022-09-03T08:26:01;9.43;;;4.45;;
35689;SDS011;26977;44.830;-0.674;2022-09-03T08:28:27;13.77;;;4.55;;
35689;SDS011;26977;44.830;-0.674;2022-09-03T08:30:54;15.63;;;5.30;;
35689;SDS011;26977;44.830;-0.674;2022-09-03T08:33:20;9.98;;;4.78;;
35689;SDS011;26977;44.830;-0.674;2022-09-03T08:36:11;10.18;;;4.90;;
35689;SDS011;26977;44.830;-0.674;2022-09-03T08:38:38;9.05;;;4.32;;
35689;SDS011;26977;44.830;-0.674;2022-09-03T08:41:11;9.52;;;4.22;;
35689;SDS011;26977;44.830;-0.674;2022-09-03T08:49:04;9.80;;;4.78;;
35689;SDS011;26977;44.830;-0.674;2022-09-03T08:51:34;8.57;;;3.72;;
35689;SDS011;26977;44.830;-0.674;2022-09-03T08:54:04;14.32;;;3.80;;
35689;SDS011;26977;44.830;-0.674;2022-09-03T08:56:33;12.02;;;4.07;;
35689;SDS011;26977;44.830;-0.674;2022-09-03T08:59:02;9.48;;;3.35;;
35689;SDS011;26977;44.830;-0.674;2022-09-03T09:01:48;9.00;;;3.83;;
35689;SDS011;26977;44.830;-0.674;2022-09-03T09:05:04;9.57;;;3.40;;
35689;SDS011;26977;44.830;-0.674;2022-09-03T09:08:00;8.55;;;3.55;;
35689;SDS011;26977;44.830;-0.674;2022-09-03T09:21:38;8.43;;;3.53;;
35689;SDS011;26977;44.830;-0.674;2022-09-03T09:24:12;9.70;;;3.83;;
35689;SDS011;26977;44.830;-0.674;2022-09-03T09:26:59;7.43;;;3.30;;
35689;SDS011;26977;44.830;-0.674;2022-09-03T09:29:31;8.07;;;4.00;;
35689;SDS011;26977;44.830;-0.674;2022-09-03T09:31:59;8.20;;;3.50;;
35689;SDS011;26977;44.830;-0.674;2022-09-03T09:34:25;12.40;;;3.63;;
35689;SDS011;26977;44.830;-0.674;2022-09-03T09:36:52;10.23;;;3.25;;
35689;SDS011;26977;44.830;-0.674;2022-09-03T09:39:19;10.50;;;3.38;;
35689;SDS011;26977;44.830;-0.674;2022-09-03T09:42:04;11.40;;;3.20;;
35689;SDS011;26977;44.830;-0.674;2022-09-03T09:44:36;12.57;;;3.22;;
35689;SDS011;26977;44.830;-0.674;2022-09-03T09:47:04;11.38;;;3.63;;
35689;SDS011;26977;44.830;-0.674;2022-09-03T09:49:34;8.63;;;3.47;;
35689;SDS011;26977;44.830;-0.674;2022-09-03T09:52:09;10.23;;;3.42;;
35689;SDS011;26977;44.830;-0.674;2022-09-03T09:54:36;8.48;;;3.33;;
35689;SDS011;26977;44.830;-0.674;2022-09-03T09:57:04;7.55;;;2.60;;
35689;SDS011;26977;44.830;-0.674;2022-09-03T09:59:32;7.07;;;3.00;;
35689;SDS011;26977;44.830;-0.674;2022-09-03T10:02:46;9.35;;;3.38;;
35689;SDS011;26977;44.830;-0.674;2022-09-03T10:04:58;7.00;;;2.40;;
35689;SDS011;26977;44.830;-0.674;2022-09-03T10:07:36;8.48;;;3.28;;
35689;SDS011;26977;44.830;-0.674;2022-09-03T10:10:06;9.88;;;2.95;;
35689;SDS011;26977;44.830;-0.674;2022-09-03T10:13:23;10.00;;;2.85;;
35689;SDS011;26977;44.830;-0.674;2022-09-03T10:26:23;11.35;;;2.67;;
35689;SDS011;26977;44.830;-0.674;2022-09-03T10:37:18;6.20;;;2.50;;
35689;SDS011;26977;44.830;-0.674;2022-09-03T10:42:34;6.75;;;2.60;;
35689;SDS011;26977;44.830;-0.674;2022-09-03T10:51:05;6.70;;;2.67;;
35689;SDS011;26977;44.830;-0.674;2022-09-03T10:59:57;6.78;;;2.50;;
35689;SDS011;26977;44.830;-0.674;2022-09-03T11:05:13;5.38;;;2.28;;
35689;SDS011;26977;44.830;-0.674;2022-09-03T11:07:47;8.30;;;2.45;;
35689;SDS011;26977;44.830;-0.674;2022-09-03T11:10:19;6.20;;;2.20;;
35689;SDS011;26977;44.830;-0.674;2022-09-03T11:15:24;7.70;;;2.40;;
35689;SDS011;26977;44.830;-0.674;2022-09-03T11:18:17;8.80;;;2.28;;
35689;SDS011;26977;44.830;-0.674;2022-09-03T11:21:15;7.35;;;2.45;;
35689;SDS011;26977;44.830;-0.674;2022-09-03T11:23:51;5.85;;;2.47;;
35689;SDS011;26977;44.830;-0.674;2022-09-03T11:26:28;7.28;;;2.20;;
35689;SDS011;26977;44.830;-0.674;2022-09-03T11:28:58;6.53;;;2.20;;
35689;SDS011;26977;44.830;-0.674;2022-09-03T11:31:49;5.68;;;2.15;;
35689;SDS011;26977;44.830;-0.674;2022-09-03T11:36:49;7.40;;;1.95;;
35689;SDS011;26977;44.830;-0.674;2022-09-03T11:41:59;6.40;;;2.28;;
35689;SDS011;26977;44.830;-0.674;2022-09-03T11:44:37;6.90;;;2.10;;
35689;SDS011;26977;44.830;-0.674;2022-09-03T11:47:23;9.57;;;2.38;;
35689;SDS011;26977;44.830;-0.674;2022-09-03T11:53:36;5.68;;;2.05;;
35689;SDS011;26977;44.830;-0.674;2022-09-03T11:58:29;7.85;;;1.92;;
35689;SDS011;26977;44.830;-0.674;2022-09-03T12:01:00;8.90;;;2.40;;
35689;SDS011;26977;44.830;-0.674;2022-09-03T12:14:26;8.07;;;2.10;;
35689;SDS011;26977;44.830;-0.674;2022-09-03T12:19:57;5.82;;;1.60;;
35689;SDS011;26977;44.830;-0.674;2022-09-03T12:22:24;6.93;;;1.90;;
35689;SDS011;26977;44.830;-0.674;2022-09-03T12:25:05;7.47;;;1.80;;
35689;SDS011;26977;44.830;-0.674;2022-09-03T12:27:37;8.63;;;2.42;;
35689;SDS011;26977;44.830;-0.674;2022-09-03T12:30:14;7.32;;;1.98;;
35689;SDS011;26977;44.830;-0.674;2022-09-03T12:32:42;6.35;;;2.15;;
35689;SDS011;26977;44.830;-0.674;2022-09-03T12:37:40;6.25;;;1.70;;
35689;SDS011;26977;44.830;-0.674;2022-09-03T12:40:15;7.35;;;1.88;;
35689;SDS011;26977;44.830;-0.674;2022-09-03T12:42:45;7.40;;;1.95;;
35689;SDS011;26977;44.830;-0.674;2022-09-03T12:45:12;8.45;;;1.92;;
35689;SDS011;26977;44.830;-0.674;2022-09-03T12:47:40;7.15;;;1.77;;
35689;SDS011;26977;44.830;-0.674;2022-09-03T12:50:11;6.25;;;1.63;;
35689;SDS011;26977;44.830;-0.674;2022-09-03T12:55:37;6.45;;;1.63;;
35689;SDS011;26977;44.830;-0.674;2022-09-03T12:58:27;7.32;;;1.80;;
35689;SDS011;26977;44.830;-0.674;2022-09-03T13:01:10;7.97;;;1.77;;
35689;SDS011;26977;44.830;-0.674;2022-09-03T13:06:14;7.60;;;1.73;;
35689;SDS011;26977;44.830;-0.674;2022-09-03T13:08:48;5.28;;;1.85;;
35689;SDS011;26977;44.830;-0.674;2022-09-03T13:11:18;8.03;;;2.00;;
35689;SDS011;26977;44.830;-0.674;2022-09-03T13:25:45;5.85;;;2.00;;
35689;SDS011;26977;44.830;-0.674;2022-09-03T13:31:28;6.73;;;2.00;;
35689;SDS011;26977;44.830;-0.674;2022-09-03T13:34:19;7.15;;;1.90;;
35689;SDS011;26977;44.830;-0.674;2022-09-03T13:36:55;7.25;;;2.10;;
35689;SDS011;26977;44.830;-0.674;2022-09-03T13:39:34;5.65;;;1.60;;
35689;SDS011;26977;44.830;-0.674;2022-09-03T13:42:20;7.75;;;1.70;;
35689;SDS011;26977;44.830;-0.674;2022-09-03T13:52:57;9.75;;;1.80;;
35689;SDS011;26977;44.830;-0.674;2022-09-03T13:55:34;4.50;;;1.50;;
35689;SDS011;26977;44.830;-0.674;2022-09-03T13:58:09;6.75;;;1.77;;
35689;SDS011;26977;44.830;-0.674;2022-09-03T14:08:39;6.88;;;1.70;;
35689;SDS011;26977;44.830;-0.674;2022-09-03T14:16:30;5.63;;;1.80;;
35689;SDS011;26977;44.830;-0.674;2022-09-03T14:27:23;6.90;;;1.83;;
35689;SDS011;26977;44.830;-0.674;2022-09-03T14:29:57;6.40;;;1.63;;
35689;SDS011;26977;44.830;-0.674;2022-09-03T14:46:22;5.88;;;1.58;;
35689;SDS011;26977;44.830;-0.674;2022-09-03T14:54:44;5.95;;;1.50;;
35689;SDS011;26977;44.830;-0.674;2022-09-03T15:07:45;5.50;;;1.90;;
35689;SDS011;26977;44.830;-0.674;2022-09-03T15:13:29;5.53;;;1.77;;
35689;SDS011;26977;44.830;-0.674;2022-09-03T15:21:05;5.82;;;1.58;;
35689;SDS011;26977;44.830;-0.674;2022-09-03T15:44:05;5.82;;;1.80;;
35689;SDS011;26977;44.830;-0.674;2022-09-03T15:57:49;8.40;;;1.70;;
35689;SDS011;26977;44.830;-0.674;2022-09-03T16:00:40;6.85;;;1.70;;
35689;SDS011;26977;44.830;-0.674;2022-09-03T16:12:00;5.80;;;1.95;;
35689;SDS011;26977;44.830;-0.674;2022-09-03T16:19:44;4.97;;;1.67;;
35689;SDS011;26977;44.830;-0.674;2022-09-03T16:22:43;4.75;;;1.67;;
35689;SDS011;26977;44.830;-0.674;2022-09-03T16:25:19;6.45;;;1.77;;
35689;SDS011;26977;44.830;-0.674;2022-09-03T16:30:42;6.75;;;1.60;;
35689;SDS011;26977;44.830;-0.674;2022-09-03T16:33:32;7.10;;;1.70;;
35689;SDS011;26977;44.830;-0.674;2022-09-03T17:29:41;6.72;;;1.80;;
35689;SDS011;26977;44.830;-0.674;2022-09-03T17:32:35;4.43;;;1.60;;
35689;SDS011;26977;44.830;-0.674;2022-09-03T17:40:20;5.93;;;1.92;;
35689;SDS011;26977;44.830;-0.674;2022-09-03T17:43:07;4.10;;;1.90;;
35689;SDS011;26977;44.830;-0.674;2022-09-03T17:45:58;6.40;;;1.50;;
35689;SDS011;26977;44.830;-0.674;2022-09-03T17:51:29;6.25;;;1.70;;
35689;SDS011;26977;44.830;-0.674;2022-09-03T17:56:53;8.40;;;2.67;;
35689;SDS011;26977;44.830;-0.674;2022-09-03T18:05:20;6.15;;;1.98;;
35689;SDS011;26977;44.830;-0.674;2022-09-03T18:22:24;7.68;;;2.40;;
35689;SDS011;26977;44.830;-0.674;2022-09-03T18:25:13;8.73;;;2.15;;
35689;SDS011;26977;44.830;-0.674;2022-09-03T18:28:05;6.70;;;2.30;;
35689;SDS011;26977;44.830;-0.674;2022-09-03T18:30:53;7.32;;;2.47;;
35689;SDS011;26977;44.830;-0.674;2022-09-03T18:33:37;4.32;;;2.35;;
35689;SDS011;26977;44.830;-0.674;2022-09-03T18:36:21;5.28;;;2.30;;
35689;SDS011;26977;44.830;-0.674;2022-09-03T18:42:10;7.03;;;2.30;;
35689;SDS011;26977;44.830;-0.674;2022-09-03T18:45:45;4.93;;;1.80;;
35689;SDS011;26977;44.830;-0.674;2022-09-03T18:48:54;6.80;;;2.10;;
35689;SDS011;26977;44.830;-0.674;2022-09-03T19:01:39;5.32;;;2.08;;
35689;SDS011;26977;44.830;-0.674;2022-09-03T19:08:18;7.10;;;2.20;;
35689;SDS011;26977;44.830;-0.674;2022-09-03T19:11:10;7.22;;;2.13;;
35689;SDS011;26977;44.830;-0.674;2022-09-03T19:17:51;5.05;;;1.90;;
35689;SDS011;26977;44.830;-0.674;2022-09-03T19:23:13;7.28;;;2.38;;
35689;SDS011;26977;44.830;-0.674;2022-09-03T19:26:15;7.28;;;2.58;;
35689;SDS011;26977;44.830;-0.674;2022-09-03T19:32:29;4.57;;;1.70;;
35689;SDS011;26977;44.830;-0.674;2022-09-03T19:35:28;7.28;;;2.47;;
35689;SDS011;26977;44.830;-0.674;2022-09-03T19:38:35;10.82;;;2.30;;
35689;SDS011;26977;44.830;-0.674;2022-09-03T19:42:00;8.45;;;2.08;;
35689;SDS011;26977;44.830;-0.674;2022-09-03T19:48:35;6.75;;;2.33;;
35689;SDS011;26977;44.830;-0.674;2022-09-03T19:51:08;6.10;;;2.10;;
35689;SDS011;26977;44.830;-0.674;2022-09-03T19:54:03;5.53;;;2.28;;
35689;SDS011;26977;44.830;-0.674;2022-09-03T19:56:50;8.48;;;2.22;;
35689;SDS011;26977;44.830;-0.674;2022-09-03T19:59:37;6.85;;;2.20;;
35689;SDS011;26977;44.830;-0.674;2022-09-03T20:02:23;6.70;;;2.17;;
35689;SDS011;26977;44.830;-0.674;2022-09-03T20:05:18;6.00;;;2.10;;
35689;SDS011;26977;44.830;-0.674;2022-09-03T20:08:04;8.85;;;2.50;;
35689;SDS011;26977;44.830;-0.674;2022-09-03T20:10:50;5.40;;;2.53;;
35689;SDS011;26977;44.830;-0.674;2022-09-03T20:13:20;11.55;;;2.42;;
35689;SDS011;26977;44.830;-0.674;2022-09-03T20:20:54;11.40;;;2.53;;
35689;SDS011;26977;44.830;-0.674;2022-09-03T20:26:09;5.70;;;2.13;;
35689;SDS011;26977;44.830;-0.674;2022-09-03T20:42:56;6.05;;;2.10;;
35689;SDS011;26977;44.830;-0.674;2022-09-03T20:45:57;9.10;;;2.20;;
35689;SDS011;26977;44.830;-0.674;2022-09-03T20:48:47;10.10;;;2.08;;
35689;SDS011;26977;44.830;-0.674;2022-09-03T20:51:21;5.85;;;2.22;;
35689;SDS011;26977;44.830;-0.674;2022-09-03T20:54:05;7.05;;;2.28;;
35689;SDS011;26977;44.830;-0.674;2022-09-03T21:07:42;10.07;;;2.15;;
35689;SDS011;26977;44.830;-0.674;2022-09-03T21:13:19;10.48;;;2.80;;
35689;SDS011;26977;44.830;-0.674;2022-09-03T21:16:53;5.47;;;2.40;;
35689;SDS011;26977;44.830;-0.674;2022-09-03T21:24:53;6.38;;;2.10;;
35689;SDS011;26977;44.830;-0.674;2022-09-03T21:27:23;9.27;;;2.40;;
35689;SDS011;26977;44.830;-0.674;2022-09-03T21:30:07;6.65;;;2.60;;
35689;SDS011;26977;44.830;-0.674;2022-09-03T21:40:31;6.75;;;2.38;;
35689;SDS011;26977;44.830;-0.674;2022-09-03T21:46:01;6.85;;;2.42;;
35689;SDS011;26977;44.830;-0.674;2022-09-03T21:51:30;11.65;;;2.72;;
35689;SDS011;26977;44.830;-0.674;2022-09-03T21:54:06;6.00;;;2.30;;
35689;SDS011;26977;44.830;-0.674;2022-09-03T21:59:51;6.40;;;2.30;;
35689;SDS011;26977;44.830;-0.674;2022-09-03T22:02:25;7.75;;;2.38;;
35689;SDS011;26977;44.830;-0.674;2022-09-03T22:04:52;6.93;;;2.40;;
35689;SDS011;26977;44.830;-0.674;2022-09-03T22:15:54;6.57;;;2.38;;
35689;SDS011;26977;44.830;-0.674;2022-09-03T22:18:37;5.45;;;2.30;;
35689;SDS011;26977;44.830;-0.674;2022-09-03T22:32:30;5.22;;;2.40;;
35689;SDS011;26977;44.830;-0.674;2022-09-03T22:46:26;6.80;;;2.38;;
35689;SDS011;26977;44.830;-0.674;2022-09-03T22:57:01;7.40;;;2.53;;
35689;SDS011;26977;44.830;-0.674;2022-09-03T22:59:30;7.70;;;3.13;;
35689;SDS011;26977;44.830;-0.674;2022-09-03T23:07:48;9.40;;;2.75;;
35689;SDS011;26977;44.830;-0.674;2022-09-03T23:10:32;10.68;;;2.50;;
35689;SDS011;26977;44.830;-0.674;2022-09-03T23:16:13;7.80;;;2.63;;
35689;SDS011;26977;44.830;-0.674;2022-09-03T23:18:55;8.77;;;2.50;;
35689;SDS011;26977;44.830;-0.674;2022-09-03T23:24:06;6.13;;;2.63;;
35689;SDS011;26977;44.830;-0.674;2022-09-03T23:26:47;11.63;;;2.78;;
35689;SDS011;26977;44.830;-0.674;2022-09-03T23:29:27;5.32;;;2.60;;
35689;SDS011;26977;44.830;-0.674;2022-09-03T23:32:07;7.65;;;2.60;;